Aeroporto :
LOGIN :

Iscrizione | Disclaimer

   EN    FR    IT 

 










Sommario :    VFR   VFR Marginale   IFR   IFR Intensivo   IFR Molto Intensivo
Visibilità : 
Base nubi : 
>= 8 km
>= 3000ft
5 / 8 km
1000 / 3000 ft
1500m / 5 km
500 / 1000 ft
800 / 1500m
200 / 500 ft
< 800m
< 200 ft
Simboli :   Temporali  Nebbia  Neve Forte  Precipitazioni Forti  Vento > 20 kt
SIGMETs :   Varie  Temporali  Ghiacco  Turbolenza  Onda orograficha  Ceneri Vulcaniche






- Altitudine del aeroporto : 245 ft
- Codice IATA : BIQ


LFBZ - Biarritz

ULTIMO METAR :
  • 250730Z AUTO VRB03KT CAVOK 21/17 Q1011 NOSIG

METARs OBSOLETI :
  • 250700Z AUTO VRB02KT CAVOK 20/16 Q1011 NOSIG
  • 250630Z AUTO VRB02KT CAVOK 18/16 Q1011 NOSIG
  • 250600Z AUTO 16005KT CAVOK 17/16 Q1011 NOSIG
  • 250530Z AUTO 16004KT CAVOK 16/15 Q1011 NOSIG
  • 250500Z AUTO 16005KT CAVOK 14/14 Q1011 TEMPO 0400 FG VV///
  • 250430Z AUTO 15005KT CAVOK 14/14 Q1011 TEMPO 0400 FG VV///
  • 250400Z AUTO 17004KT CAVOK 15/14 Q1011 TEMPO 0400 FG VV///
  • 250330Z AUTO 18003KT CAVOK 15/14 Q1011 TEMPO 0400 FG VV///
  • 250300Z AUTO 19003KT CAVOK 15/14 Q1011 TEMPO 0400 FG VV///

TAF TAF LFBZ
Valido dal 25 a 06 ore il 26 a 06 ore UTC


250500Z 2506/2606 16005KT CAVOK
BECMG 2509/2511 09005KT
BECMG 2513/2515 01010KT
BECMG 2518/2520 27005KT
PROB30
TEMPO 2520/2522 28010G25KT BKN005
PROB30
TEMPO 2602/2606 4000 BR BKN003



MetMap, La meteo Aeronautica in un colpo d'occhio ! - Copyright ORBIFLY Dicembre 2007 - Disclaimer

ORBIFLY MET'MAP TEAM :

Programmazione e sviluppo : Alexandra Zaïnal
Concezione : Baudouin d'Aumeries
Supporto tecnico e logistico : Manuel Goepfert
Aiuto : Marc-Olivier Méhu
Aiuto per la traduzione : Arnaldo La Scala




FONTI E CREDITI :

   NOAA